»·PEaware :: N799DS KSMO-KONT

N799DS :: KSMO-KONT

FLIGHT INFORMATION

Flight Status: Arrived
Operator: Privately registered:
United States
More flights under this callsign
Pilot: Wolfgang B. (15069)
Aircraft: CESSNA 172 SKYHAWK
(C172)
More flights by this aircraft type
Origin: KSMO Santa Monica Mun
United States
Destination: KONT Ontario Intl
United States
More flights between these airports :: More routes between these airports
Route: +SMO SMO125 V64 SLI V8 PDZ
File this flight plan on PilotEdge
Remarks:
Altitude:
(Current/Filed)
5,000ft
Speed:
(Current/Filed)
120kts
Departed: 03-Feb-19 03:44 PM
Arrived: 03-Feb-19 04:35 PM
Distance/Time
Traveled:
43nm/0:51
Distance/Time
To Go:
Arrived

Flight Plot

Page will automatically refresh every two minutes.


Map Options




Map Legend


Flown Route
Filed Route
Departure Airport
Arrival Airport
Navaid (VOR, NDB)
Fix

Horizontal Profiles

Position Reports

Time Latitude Longitude Heading Altitude Ground
Speed
03-Feb-19 14:57 34.017594 -118.445208 330 158ft 0kts
03-Feb-19 14:58 34.017594 -118.445208 330 158ft 0kts
03-Feb-19 14:59 34.017594 -118.445208 330 158ft 0kts
03-Feb-19 15:00 34.017594 -118.445208 330 158ft 0kts
03-Feb-19 15:02 34.017594 -118.445208 330 158ft 0kts
03-Feb-19 15:03 34.017594 -118.445208 330 158ft 0kts
03-Feb-19 15:04 34.017594 -118.445208 330 158ft 0kts
03-Feb-19 15:05 34.017594 -118.445208 330 158ft 0kts
03-Feb-19 15:06 34.017594 -118.445208 330 158ft 0kts
03-Feb-19 15:07 34.017594 -118.445208 330 158ft 0kts
03-Feb-19 15:08 34.017594 -118.445208 330 158ft 0kts
03-Feb-19 15:09 34.017594 -118.445208 330 158ft 0kts
03-Feb-19 15:10 34.017594 -118.445208 330 158ft 0kts
03-Feb-19 15:11 34.017594 -118.445208 330 158ft 0kts
03-Feb-19 15:12 34.017594 -118.445208 330 158ft 0kts
03-Feb-19 15:13 34.017594 -118.445208 330 158ft 0kts
03-Feb-19 15:14 34.017594 -118.445208 330 158ft 0kts
03-Feb-19 15:15 34.017594 -118.445208 330 158ft 0kts
03-Feb-19 15:16 34.017594 -118.445208 330 158ft 0kts
03-Feb-19 15:17 34.017594 -118.445208 330 158ft 0kts
03-Feb-19 15:18 34.017594 -118.445208 330 158ft 0kts
03-Feb-19 15:19 34.017594 -118.445208 330 158ft 0kts
03-Feb-19 15:19 34.017593 -118.445208 330 158ft 0kts
03-Feb-19 15:21 34.017593 -118.445208 330 158ft 0kts
03-Feb-19 15:22 34.017593 -118.445208 330 158ft 0kts
03-Feb-19 15:23 34.017593 -118.445208 330 158ft 0kts
03-Feb-19 15:23 34.017593 -118.445208 330 158ft 0kts
03-Feb-19 15:24 34.017593 -118.445208 330 158ft 0kts
03-Feb-19 15:25 34.017597 -118.445211 330 158ft 0kts
03-Feb-19 15:26 34.017668 -118.445261 328 158ft 0kts
03-Feb-19 15:28 34.017668 -118.445261 328 158ft 0kts
03-Feb-19 15:28 34.017668 -118.445261 328 158ft 0kts
03-Feb-19 15:29 34.017668 -118.445261 328 158ft 0kts
03-Feb-19 15:30 34.017668 -118.445261 328 158ft 0kts
03-Feb-19 15:31 34.017668 -118.445261 328 158ft 0kts
03-Feb-19 15:32 34.017668 -118.445261 328 158ft 0kts
03-Feb-19 15:33 34.017668 -118.445261 328 158ft 0kts
03-Feb-19 15:34 34.017668 -118.445261 328 158ft 0kts
03-Feb-19 15:35 34.017668 -118.445261 328 158ft 0kts
03-Feb-19 15:36 34.017668 -118.445261 328 158ft 0kts
03-Feb-19 15:37 34.019589 -118.445639 265 161ft 3kts
03-Feb-19 15:38 34.018862 -118.446676 270 159ft 0kts
03-Feb-19 15:39 34.018862 -118.446676 270 159ft 0kts
03-Feb-19 15:40 34.018862 -118.446676 270 159ft 0kts
03-Feb-19 15:41 34.018862 -118.446676 270 159ft 0kts
03-Feb-19 15:42 34.018862 -118.446676 270 159ft 0kts
03-Feb-19 15:43 34.016806 -118.450156 223 162ft 62kts
03-Feb-19 15:44 34.003266 -118.466772 223 1116ft 69kts
03-Feb-19 15:45 33.991488 -118.485419 261 2056ft 74kts
03-Feb-19 15:46 33.989687 -118.510018 263 2956ft 73kts
03-Feb-19 15:47 33.989059 -118.535420 264 3773ft 75kts
03-Feb-19 15:48 33.989283 -118.560202 281 4575ft 76kts
03-Feb-19 15:49 34.006464 -118.551823 89 5005ft 116kts
03-Feb-19 15:50 34.008431 -118.509450 92 4995ft 130kts
03-Feb-19 15:51 34.009804 -118.468761 91 4993ft 132kts
03-Feb-19 15:52 33.990687 -118.434603 146 4991ft 124kts
03-Feb-19 15:53 33.964625 -118.409639 145 4993ft 127kts
03-Feb-19 15:54 33.936784 -118.382375 143 4997ft 131kts
03-Feb-19 15:55 33.908854 -118.354634 141 5000ft 132kts
03-Feb-19 15:56 33.880740 -118.326581 140 4999ft 132kts
03-Feb-19 15:57 33.852611 -118.298537 140 4998ft 130kts
03-Feb-19 15:58 33.824687 -118.270518 141 4999ft 132kts
03-Feb-19 15:59 33.796980 -118.242808 141 5000ft 133kts
03-Feb-19 16:00 33.769956 -118.214211 117 4998ft 134kts
03-Feb-19 16:01 33.774345 -118.171371 74 5003ft 133kts
03-Feb-19 16:02 33.779043 -118.126968 85 5005ft 135kts
03-Feb-19 16:03 33.781591 -118.082055 87 5006ft 136kts
03-Feb-19 16:04 33.786697 -118.037244 71 5005ft 137kts
03-Feb-19 16:05 33.798834 -117.994294 71 5002ft 137kts
03-Feb-19 16:06 33.810064 -117.951603 73 5000ft 137kts
03-Feb-19 16:07 33.821242 -117.908392 73 4999ft 137kts
03-Feb-19 16:08 33.832425 -117.865098 73 4997ft 137kts
03-Feb-19 16:09 33.843757 -117.821134 73 5005ft 137kts
03-Feb-19 16:10 33.854844 -117.777695 73 5006ft 137kts
03-Feb-19 16:11 33.865998 -117.733536 72 5006ft 137kts
03-Feb-19 16:12 33.877370 -117.689524 73 5007ft 136kts
03-Feb-19 16:13 33.888606 -117.645819 73 5008ft 135kts
03-Feb-19 16:14 33.899697 -117.602678 73 5010ft 135kts
03-Feb-19 16:15 33.910727 -117.559715 73 5010ft 135kts
03-Feb-19 16:16 33.924042 -117.517923 61 5010ft 135kts
03-Feb-19 16:17 33.942075 -117.478616 59 5010ft 135kts
03-Feb-19 16:18 33.959211 -117.438736 64 5009ft 134kts
03-Feb-19 16:19 33.974431 -117.397453 64 5009ft 133kts
03-Feb-19 16:20 33.989205 -117.356213 64 4930ft 132kts
03-Feb-19 16:21 34.003075 -117.316871 65 4314ft 129kts
03-Feb-19 16:22 34.017072 -117.277185 65 4207ft 128kts
03-Feb-19 16:23 34.037062 -117.246818 347 4204ft 118kts
03-Feb-19 16:24 34.049066 -117.280570 281 4207ft 118kts
03-Feb-19 16:25 34.053297 -117.317126 276 4209ft 101kts
03-Feb-19 16:26 34.054343 -117.351543 271 4208ft 103kts
03-Feb-19 16:27 34.054693 -117.385152 273 4121ft 99kts
03-Feb-19 16:28 34.054898 -117.419056 270 3599ft 100kts
03-Feb-19 16:29 34.054931 -117.452726 271 3088ft 99kts
03-Feb-19 16:30 34.054999 -117.485863 271 2545ft 98kts
03-Feb-19 16:31 34.054917 -117.518461 268 2017ft 96kts
03-Feb-19 16:32 34.054957 -117.549981 269 1504ft 86kts
03-Feb-19 16:33 34.054974 -117.572538 267 1163ft 56kts
03-Feb-19 16:34 34.054947 -117.588747 273 919ft 20kts
03-Feb-19 16:35 34.054027 -117.589787 217 915ft 0kts
03-Feb-19 16:36 34.053802 -117.593131 271 914ft 18kts

Navigation Log

Ident Type
Flight plan parsing failed, navigation log unavailable